sensor_id;sensor_type;location;lat;lon;timestamp;temperature;humidity
21906;DHT22;11117;48.644;9.006;2023-03-01T00:02:11;-0.70;99.90
21906;DHT22;11117;48.644;9.006;2023-03-01T00:04:37;-0.70;99.90
21906;DHT22;11117;48.644;9.006;2023-03-01T00:07:02;-0.70;99.90
21906;DHT22;11117;48.644;9.006;2023-03-01T00:09:28;-0.70;99.90
21906;DHT22;11117;48.644;9.006;2023-03-01T00:11:54;-0.70;99.90
21906;DHT22;11117;48.644;9.006;2023-03-01T00:14:19;-0.80;99.90
21906;DHT22;11117;48.644;9.006;2023-03-01T00:16:45;-0.80;99.90
21906;DHT22;11117;48.644;9.006;2023-03-01T00:19:14;-0.80;99.90
21906;DHT22;11117;48.644;9.006;2023-03-01T00:21:40;-0.90;99.90
21906;DHT22;11117;48.644;9.006;2023-03-01T00:24:06;-0.90;99.90
21906;DHT22;11117;48.644;9.006;2023-03-01T00:26:31;-1.00;99.90
21906;DHT22;11117;48.644;9.006;2023-03-01T00:28:58;-1.10;99.90
21906;DHT22;11117;48.644;9.006;2023-03-01T00:31:29;-1.10;99.90
21906;DHT22;11117;48.644;9.006;2023-03-01T00:33:57;-1.20;99.90
21906;DHT22;11117;48.644;9.006;2023-03-01T00:36:24;-1.30;99.90
21906;DHT22;11117;48.644;9.006;2023-03-01T00:38:50;-1.40;99.90
21906;DHT22;11117;48.644;9.006;2023-03-01T00:41:17;-1.50;99.90
21906;DHT22;11117;48.644;9.006;2023-03-01T00:43:44;-1.60;99.90
21906;DHT22;11117;48.644;9.006;2023-03-01T00:46:18;-1.70;99.90
21906;DHT22;11117;48.644;9.006;2023-03-01T00:48:45;-1.70;99.90
21906;DHT22;11117;48.644;9.006;2023-03-01T00:51:13;-1.70;99.90
21906;DHT22;11117;48.644;9.006;2023-03-01T00:53:40;-1.80;99.90
21906;DHT22;11117;48.644;9.006;2023-03-01T00:56:07;-1.80;99.90
21906;DHT22;11117;48.644;9.006;2023-03-01T00:58:34;-1.80;99.90
21906;DHT22;11117;48.644;9.006;2023-03-01T01:00:59;-1.90;99.90
21906;DHT22;11117;48.644;9.006;2023-03-01T01:03:25;-1.90;99.90
21906;DHT22;11117;48.644;9.006;2023-03-01T01:05:52;-1.90;99.90
21906;DHT22;11117;48.644;9.006;2023-03-01T01:08:18;-1.90;99.90
21906;DHT22;11117;48.644;9.006;2023-03-01T01:10:45;-2.00;99.90
21906;DHT22;11117;48.644;9.006;2023-03-01T01:13:11;-2.00;99.90
21906;DHT22;11117;48.644;9.006;2023-03-01T01:15:36;-1.90;99.90
21906;DHT22;11117;48.644;9.006;2023-03-01T01:18:02;-1.90;99.90
21906;DHT22;11117;48.644;9.006;2023-03-01T01:20:28;-1.90;99.90
21906;DHT22;11117;48.644;9.006;2023-03-01T01:22:54;-1.90;99.90
21906;DHT22;11117;48.644;9.006;2023-03-01T01:25:19;-1.90;99.90
21906;DHT22;11117;48.644;9.006;2023-03-01T01:27:45;-1.90;99.90
21906;DHT22;11117;48.644;9.006;2023-03-01T01:30:11;-1.90;99.90
21906;DHT22;11117;48.644;9.006;2023-03-01T01:32:37;-1.90;99.90
21906;DHT22;11117;48.644;9.006;2023-03-01T01:35:02;-1.80;99.90
21906;DHT22;11117;48.644;9.006;2023-03-01T01:37:28;-1.80;99.90
21906;DHT22;11117;48.644;9.006;2023-03-01T01:39:53;-1.80;99.90
21906;DHT22;11117;48.644;9.006;2023-03-01T01:42:19;-1.80;99.90
21906;DHT22;11117;48.644;9.006;2023-03-01T01:44:46;-1.80;99.90
21906;DHT22;11117;48.644;9.006;2023-03-01T01:47:18;-1.80;99.90
21906;DHT22;11117;48.644;9.006;2023-03-01T01:49:46;-1.80;99.90
21906;DHT22;11117;48.644;9.006;2023-03-01T01:52:19;-1.90;99.90
21906;DHT22;11117;48.644;9.006;2023-03-01T01:55:10;-1.90;99.90
21906;DHT22;11117;48.644;9.006;2023-03-01T01:57:36;-1.90;99.90
21906;DHT22;11117;48.644;9.006;2023-03-01T02:00:10;-1.90;99.90
21906;DHT22;11117;48.644;9.006;2023-03-01T02:02:37;-1.90;99.90
21906;DHT22;11117;48.644;9.006;2023-03-01T02:05:16;-2.00;99.90
21906;DHT22;11117;48.644;9.006;2023-03-01T02:07:44;-2.10;99.90
21906;DHT22;11117;48.644;9.006;2023-03-01T02:10:11;-2.10;99.90
21906;DHT22;11117;48.644;9.006;2023-03-01T02:12:36;-2.10;99.90
21906;DHT22;11117;48.644;9.006;2023-03-01T02:15:03;-2.10;99.90
21906;DHT22;11117;48.644;9.006;2023-03-01T02:17:29;-2.00;99.90
21906;DHT22;11117;48.644;9.006;2023-03-01T02:22:39;-1.90;99.90
21906;DHT22;11117;48.644;9.006;2023-03-01T02:25:31;-1.90;99.90
21906;DHT22;11117;48.644;9.006;2023-03-01T02:30:40;-1.70;99.90
21906;DHT22;11117;48.644;9.006;2023-03-01T02:33:06;-1.60;99.90
21906;DHT22;11117;48.644;9.006;2023-03-01T02:35:35;-1.50;99.90
21906;DHT22;11117;48.644;9.006;2023-03-01T02:38:01;-1.30;99.90
21906;DHT22;11117;48.644;9.006;2023-03-01T02:40:29;-1.30;99.90
21906;DHT22;11117;48.644;9.006;2023-03-01T02:42:58;-1.20;99.90
21906;DHT22;11117;48.644;9.006;2023-03-01T02:45:24;-1.10;99.90
21906;DHT22;11117;48.644;9.006;2023-03-01T02:47:54;-1.00;99.90
21906;DHT22;11117;48.644;9.006;2023-03-01T02:53:41;-0.80;99.90
21906;DHT22;11117;48.644;9.006;2023-03-01T02:56:10;-0.70;99.90
21906;DHT22;11117;48.644;9.006;2023-03-01T02:58:36;-0.70;99.90
21906;DHT22;11117;48.644;9.006;2023-03-01T03:01:01;-0.70;99.90
21906;DHT22;11117;48.644;9.006;2023-03-01T03:03:27;-0.70;99.90
21906;DHT22;11117;48.644;9.006;2023-03-01T03:05:52;-0.70;99.90
21906;DHT22;11117;48.644;9.006;2023-03-01T03:08:18;-0.70;99.90
21906;DHT22;11117;48.644;9.006;2023-03-01T03:10:43;-0.70;99.90
21906;DHT22;11117;48.644;9.006;2023-03-01T03:13:12;-0.70;99.90
21906;DHT22;11117;48.644;9.006;2023-03-01T03:15:38;-0.70;99.90
21906;DHT22;11117;48.644;9.006;2023-03-01T03:18:07;-0.60;99.90
21906;DHT22;11117;48.644;9.006;2023-03-01T03:20:34;-0.60;99.90
21906;DHT22;11117;48.644;9.006;2023-03-01T03:22:59;-0.60;99.90
21906;DHT22;11117;48.644;9.006;2023-03-01T03:25:27;-0.60;99.90
21906;DHT22;11117;48.644;9.006;2023-03-01T03:27:53;-0.60;99.90
21906;DHT22;11117;48.644;9.006;2023-03-01T03:30:20;-0.60;99.90
21906;DHT22;11117;48.644;9.006;2023-03-01T03:32:47;-0.50;99.90
21906;DHT22;11117;48.644;9.006;2023-03-01T03:35:13;-0.40;99.90
21906;DHT22;11117;48.644;9.006;2023-03-01T03:37:40;-0.40;99.90
21906;DHT22;11117;48.644;9.006;2023-03-01T03:40:05;-0.50;99.90
21906;DHT22;11117;48.644;9.006;2023-03-01T03:42:31;-0.40;99.90
21906;DHT22;11117;48.644;9.006;2023-03-01T03:44:57;-0.50;99.90
21906;DHT22;11117;48.644;9.006;2023-03-01T03:47:22;-0.40;99.90
21906;DHT22;11117;48.644;9.006;2023-03-01T03:49:48;-0.40;99.90
21906;DHT22;11117;48.644;9.006;2023-03-01T03:52:13;-0.30;99.90
21906;DHT22;11117;48.644;9.006;2023-03-01T03:54:40;-0.30;99.90
21906;DHT22;11117;48.644;9.006;2023-03-01T03:57:06;-0.30;99.90
21906;DHT22;11117;48.644;9.006;2023-03-01T03:59:32;-0.30;99.90
21906;DHT22;11117;48.644;9.006;2023-03-01T04:01:58;-0.40;99.90
21906;DHT22;11117;48.644;9.006;2023-03-01T04:04:23;-0.40;99.90
21906;DHT22;11117;48.644;9.006;2023-03-01T04:06:49;-0.40;99.90
21906;DHT22;11117;48.644;9.006;2023-03-01T04:09:14;-0.30;99.90
21906;DHT22;11117;48.644;9.006;2023-03-01T04:11:40;-0.30;99.90
21906;DHT22;11117;48.644;9.006;2023-03-01T04:14:05;-0.30;99.90
21906;DHT22;11117;48.644;9.006;2023-03-01T04:16:31;-0.30;99.90
21906;DHT22;11117;48.644;9.006;2023-03-01T04:18:56;-0.30;99.90
21906;DHT22;11117;48.644;9.006;2023-03-01T04:21:22;-0.20;99.90
21906;DHT22;11117;48.644;9.006;2023-03-01T04:23:47;-0.30;99.90
21906;DHT22;11117;48.644;9.006;2023-03-01T04:26:13;-0.30;99.90
21906;DHT22;11117;48.644;9.006;2023-03-01T04:28:41;-0.30;99.90
21906;DHT22;11117;48.644;9.006;2023-03-01T04:31:09;-0.20;99.90
21906;DHT22;11117;48.644;9.006;2023-03-01T04:33:35;-0.20;99.90
21906;DHT22;11117;48.644;9.006;2023-03-01T04:36:01;-0.20;99.90
21906;DHT22;11117;48.644;9.006;2023-03-01T04:38:26;-0.10;99.90
21906;DHT22;11117;48.644;9.006;2023-03-01T04:40:52;-0.20;99.90
21906;DHT22;11117;48.644;9.006;2023-03-01T04:43:17;-0.10;99.90
21906;DHT22;11117;48.644;9.006;2023-03-01T04:45:43;0.00;99.90
21906;DHT22;11117;48.644;9.006;2023-03-01T04:48:09;0.00;99.90
21906;DHT22;11117;48.644;9.006;2023-03-01T04:50:34;0.00;99.90
21906;DHT22;11117;48.644;9.006;2023-03-01T04:53:00;0.00;99.90
21906;DHT22;11117;48.644;9.006;2023-03-01T04:55:26;0.00;99.90
21906;DHT22;11117;48.644;9.006;2023-03-01T04:57:52;0.00;99.90
21906;DHT22;11117;48.644;9.006;2023-03-01T05:00:18;0.00;99.90
21906;DHT22;11117;48.644;9.006;2023-03-01T05:02:44;0.10;99.90
21906;DHT22;11117;48.644;9.006;2023-03-01T05:05:12;0.10;99.90
21906;DHT22;11117;48.644;9.006;2023-03-01T05:07:38;0.10;99.90
21906;DHT22;11117;48.644;9.006;2023-03-01T05:10:04;0.20;99.90
21906;DHT22;11117;48.644;9.006;2023-03-01T05:12:29;0.20;99.90
21906;DHT22;11117;48.644;9.006;2023-03-01T05:14:55;0.20;99.90
21906;DHT22;11117;48.644;9.006;2023-03-01T05:17:20;0.30;99.90
21906;DHT22;11117;48.644;9.006;2023-03-01T05:19:46;0.30;99.90
21906;DHT22;11117;48.644;9.006;2023-03-01T05:22:11;0.40;99.90
21906;DHT22;11117;48.644;9.006;2023-03-01T05:24:37;0.20;99.90
21906;DHT22;11117;48.644;9.006;2023-03-01T05:27:03;0.20;99.90
21906;DHT22;11117;48.644;9.006;2023-03-01T05:29:31;0.30;99.90
21906;DHT22;11117;48.644;9.006;2023-03-01T05:31:58;0.10;99.90
21906;DHT22;11117;48.644;9.006;2023-03-01T05:34:32;0.10;99.90
21906;DHT22;11117;48.644;9.006;2023-03-01T05:36:58;0.00;99.90
21906;DHT22;11117;48.644;9.006;2023-03-01T05:39:26;0.10;99.90
21906;DHT22;11117;48.644;9.006;2023-03-01T05:41:53;0.20;99.90
21906;DHT22;11117;48.644;9.006;2023-03-01T05:44:19;0.10;99.90
21906;DHT22;11117;48.644;9.006;2023-03-01T05:46:45;0.20;99.90
21906;DHT22;11117;48.644;9.006;2023-03-01T05:49:11;0.10;99.90
21906;DHT22;11117;48.644;9.006;2023-03-01T05:51:37;0.10;99.90
21906;DHT22;11117;48.644;9.006;2023-03-01T05:54:02;0.00;99.90
21906;DHT22;11117;48.644;9.006;2023-03-01T05:56:28;0.00;99.90
21906;DHT22;11117;48.644;9.006;2023-03-01T05:58:53;0.10;99.90
21906;DHT22;11117;48.644;9.006;2023-03-01T06:01:19;0.10;99.90
21906;DHT22;11117;48.644;9.006;2023-03-01T06:03:44;0.10;99.90
21906;DHT22;11117;48.644;9.006;2023-03-01T06:06:10;0.10;99.90
21906;DHT22;11117;48.644;9.006;2023-03-01T06:08:35;0.10;99.90
21906;DHT22;11117;48.644;9.006;2023-03-01T06:11:01;0.20;99.90
21906;DHT22;11117;48.644;9.006;2023-03-01T06:13:27;0.20;99.90
21906;DHT22;11117;48.644;9.006;2023-03-01T06:15:52;0.20;99.90
21906;DHT22;11117;48.644;9.006;2023-03-01T06:18:18;0.20;99.90
21906;DHT22;11117;48.644;9.006;2023-03-01T06:20:43;0.30;99.90
21906;DHT22;11117;48.644;9.006;2023-03-01T06:23:09;0.30;99.90
21906;DHT22;11117;48.644;9.006;2023-03-01T06:25:34;0.20;99.90
21906;DHT22;11117;48.644;9.006;2023-03-01T06:28:00;0.30;99.90
21906;DHT22;11117;48.644;9.006;2023-03-01T06:30:26;0.30;99.90
21906;DHT22;11117;48.644;9.006;2023-03-01T06:32:52;0.30;99.90
21906;DHT22;11117;48.644;9.006;2023-03-01T06:35:18;0.40;99.90
21906;DHT22;11117;48.644;9.006;2023-03-01T06:37:45;0.40;99.90
21906;DHT22;11117;48.644;9.006;2023-03-01T06:40:11;0.50;99.90
21906;DHT22;11117;48.644;9.006;2023-03-01T06:42:42;0.50;99.90
21906;DHT22;11117;48.644;9.006;2023-03-01T06:45:09;0.40;99.90
21906;DHT22;11117;48.644;9.006;2023-03-01T06:47:34;0.50;99.90
21906;DHT22;11117;48.644;9.006;2023-03-01T06:50:01;0.50;99.90
21906;DHT22;11117;48.644;9.006;2023-03-01T06:52:27;0.60;99.90
21906;DHT22;11117;48.644;9.006;2023-03-01T06:54:52;0.60;99.90
21906;DHT22;11117;48.644;9.006;2023-03-01T06:57:18;0.70;99.90
21906;DHT22;11117;48.644;9.006;2023-03-01T06:59:44;0.70;99.90
21906;DHT22;11117;48.644;9.006;2023-03-01T07:02:13;0.60;99.90
21906;DHT22;11117;48.644;9.006;2023-03-01T07:04:39;0.70;99.90
21906;DHT22;11117;48.644;9.006;2023-03-01T07:07:05;0.70;99.90
21906;DHT22;11117;48.644;9.006;2023-03-01T07:09:31;0.60;99.90
21906;DHT22;11117;48.644;9.006;2023-03-01T07:11:57;0.70;99.90
21906;DHT22;11117;48.644;9.006;2023-03-01T07:14:23;0.70;99.90
21906;DHT22;11117;48.644;9.006;2023-03-01T07:16:48;0.70;99.90
21906;DHT22;11117;48.644;9.006;2023-03-01T07:19:14;0.80;99.90
21906;DHT22;11117;48.644;9.006;2023-03-01T07:21:39;0.70;99.90
21906;DHT22;11117;48.644;9.006;2023-03-01T07:24:06;0.80;99.90
21906;DHT22;11117;48.644;9.006;2023-03-01T07:26:32;0.70;99.90
21906;DHT22;11117;48.644;9.006;2023-03-01T07:29:03;0.70;99.90
21906;DHT22;11117;48.644;9.006;2023-03-01T07:31:29;0.70;99.90
21906;DHT22;11117;48.644;9.006;2023-03-01T07:33:55;0.80;99.90
21906;DHT22;11117;48.644;9.006;2023-03-01T07:36:21;1.00;99.90
21906;DHT22;11117;48.644;9.006;2023-03-01T07:38:47;0.90;99.90
21906;DHT22;11117;48.644;9.006;2023-03-01T07:41:12;1.00;99.90
21906;DHT22;11117;48.644;9.006;2023-03-01T07:43:38;1.10;99.90
21906;DHT22;11117;48.644;9.006;2023-03-01T07:46:04;1.10;99.90
21906;DHT22;11117;48.644;9.006;2023-03-01T07:48:30;1.20;99.90
21906;DHT22;11117;48.644;9.006;2023-03-01T07:51:00;1.30;99.90
21906;DHT22;11117;48.644;9.006;2023-03-01T07:53:27;1.40;99.90
21906;DHT22;11117;48.644;9.006;2023-03-01T07:56:10;1.30;99.90
21906;DHT22;11117;48.644;9.006;2023-03-01T07:58:41;1.40;99.90
21906;DHT22;11117;48.644;9.006;2023-03-01T08:01:09;1.40;99.90
21906;DHT22;11117;48.644;9.006;2023-03-01T08:03:35;1.50;99.90
21906;DHT22;11117;48.644;9.006;2023-03-01T08:06:06;1.60;99.90
21906;DHT22;11117;48.644;9.006;2023-03-01T08:08:33;1.60;99.90
21906;DHT22;11117;48.644;9.006;2023-03-01T08:11:00;1.70;99.90
21906;DHT22;11117;48.644;9.006;2023-03-01T08:13:26;1.90;99.90
21906;DHT22;11117;48.644;9.006;2023-03-01T08:15:52;2.10;99.90
21906;DHT22;11117;48.644;9.006;2023-03-01T08:18:19;2.00;99.90
21906;DHT22;11117;48.644;9.006;2023-03-01T08:20:45;2.10;99.90
21906;DHT22;11117;48.644;9.006;2023-03-01T08:23:11;2.10;99.90
21906;DHT22;11117;48.644;9.006;2023-03-01T08:25:37;1.90;99.90
21906;DHT22;11117;48.644;9.006;2023-03-01T08:28:03;1.90;99.90
21906;DHT22;11117;48.644;9.006;2023-03-01T08:30:29;1.90;99.90
21906;DHT22;11117;48.644;9.006;2023-03-01T08:32:54;2.00;99.90
21906;DHT22;11117;48.644;9.006;2023-03-01T08:35:20;2.20;99.90
21906;DHT22;11117;48.644;9.006;2023-03-01T08:37:46;2.30;99.90
21906;DHT22;11117;48.644;9.006;2023-03-01T08:40:12;2.30;99.90
21906;DHT22;11117;48.644;9.006;2023-03-01T08:42:37;2.30;99.90
21906;DHT22;11117;48.644;9.006;2023-03-01T08:45:04;2.50;99.90
21906;DHT22;11117;48.644;9.006;2023-03-01T08:47:29;2.60;99.90
21906;DHT22;11117;48.644;9.006;2023-03-01T08:49:55;2.60;99.90
21906;DHT22;11117;48.644;9.006;2023-03-01T08:52:21;2.60;99.90
21906;DHT22;11117;48.644;9.006;2023-03-01T08:54:49;2.50;99.90
21906;DHT22;11117;48.644;9.006;2023-03-01T08:57:15;2.40;99.90
21906;DHT22;11117;48.644;9.006;2023-03-01T08:59:41;2.30;99.90
21906;DHT22;11117;48.644;9.006;2023-03-01T09:02:12;2.50;99.90
21906;DHT22;11117;48.644;9.006;2023-03-01T09:04:38;2.70;99.90
21906;DHT22;11117;48.644;9.006;2023-03-01T09:07:04;2.80;99.90
21906;DHT22;11117;48.644;9.006;2023-03-01T09:09:30;2.90;99.90
21906;DHT22;11117;48.644;9.006;2023-03-01T09:11:55;3.00;99.90
21906;DHT22;11117;48.644;9.006;2023-03-01T09:14:21;3.10;99.90
21906;DHT22;11117;48.644;9.006;2023-03-01T09:16:47;3.20;99.90
21906;DHT22;11117;48.644;9.006;2023-03-01T09:19:13;3.40;99.90
21906;DHT22;11117;48.644;9.006;2023-03-01T09:21:38;3.20;99.90
21906;DHT22;11117;48.644;9.006;2023-03-01T09:24:04;3.30;99.90
21906;DHT22;11117;48.644;9.006;2023-03-01T09:26:30;3.30;99.90
21906;DHT22;11117;48.644;9.006;2023-03-01T09:28:56;3.30;99.90
21906;DHT22;11117;48.644;9.006;2023-03-01T09:31:23;3.60;99.90
21906;DHT22;11117;48.644;9.006;2023-03-01T09:33:51;3.80;99.90
21906;DHT22;11117;48.644;9.006;2023-03-01T09:36:20;3.80;99.90
21906;DHT22;11117;48.644;9.006;2023-03-01T09:38:46;4.00;99.90
21906;DHT22;11117;48.644;9.006;2023-03-01T09:44:21;3.70;99.90
21906;DHT22;11117;48.644;9.006;2023-03-01T09:46:49;3.80;99.90
21906;DHT22;11117;48.644;9.006;2023-03-01T09:49:21;3.90;99.90
21906;DHT22;11117;48.644;9.006;2023-03-01T09:52:12;4.00;99.90
21906;DHT22;11117;48.644;9.006;2023-03-01T09:54:42;4.10;99.90
21906;DHT22;11117;48.644;9.006;2023-03-01T09:57:18;4.10;99.90
21906;DHT22;11117;48.644;9.006;2023-03-01T10:00:07;4.20;99.90
21906;DHT22;11117;48.644;9.006;2023-03-01T10:03:01;4.20;99.90
21906;DHT22;11117;48.644;9.006;2023-03-01T10:05:35;4.10;99.90
21906;DHT22;11117;48.644;9.006;2023-03-01T10:08:19;3.70;99.90
21906;DHT22;11117;48.644;9.006;2023-03-01T10:10:49;3.60;99.90
21906;DHT22;11117;48.644;9.006;2023-03-01T10:13:21;3.90;99.90
21906;DHT22;11117;48.644;9.006;2023-03-01T10:15:51;4.10;99.90
21906;DHT22;11117;48.644;9.006;2023-03-01T10:18:30;4.20;99.90
21906;DHT22;11117;48.644;9.006;2023-03-01T10:21:01;4.50;99.90
21906;DHT22;11117;48.644;9.006;2023-03-01T10:23:30;4.50;99.90
21906;DHT22;11117;48.644;9.006;2023-03-01T10:31:36;4.70;99.90
21906;DHT22;11117;48.644;9.006;2023-03-01T10:34:10;4.70;99.90
21906;DHT22;11117;48.644;9.006;2023-03-01T10:36:36;4.60;99.90
21906;DHT22;11117;48.644;9.006;2023-03-01T10:39:12;4.80;99.90
21906;DHT22;11117;48.644;9.006;2023-03-01T10:41:55;4.90;99.90
21906;DHT22;11117;48.644;9.006;2023-03-01T10:44:42;5.00;99.90
21906;DHT22;11117;48.644;9.006;2023-03-01T10:47:23;5.10;99.90
21906;DHT22;11117;48.644;9.006;2023-03-01T10:49:59;5.00;99.90
21906;DHT22;11117;48.644;9.006;2023-03-01T10:52:32;5.20;99.90
21906;DHT22;11117;48.644;9.006;2023-03-01T10:55:17;5.30;99.90
21906;DHT22;11117;48.644;9.006;2023-03-01T10:57:47;5.30;99.90
21906;DHT22;11117;48.644;9.006;2023-03-01T11:00:20;5.30;99.90
21906;DHT22;11117;48.644;9.006;2023-03-01T11:05:25;5.10;99.90
21906;DHT22;11117;48.644;9.006;2023-03-01T11:07:55;5.10;99.90
21906;DHT22;11117;48.644;9.006;2023-03-01T11:10:42;5.30;99.90
21906;DHT22;11117;48.644;9.006;2023-03-01T11:13:16;5.40;99.90
21906;DHT22;11117;48.644;9.006;2023-03-01T11:15:42;5.50;99.90
21906;DHT22;11117;48.644;9.006;2023-03-01T11:18:22;5.60;99.90
21906;DHT22;11117;48.644;9.006;2023-03-01T11:20:49;5.60;99.90
21906;DHT22;11117;48.644;9.006;2023-03-01T11:23:41;5.80;99.90
21906;DHT22;11117;48.644;9.006;2023-03-01T11:26:37;5.90;99.90
21906;DHT22;11117;48.644;9.006;2023-03-01T11:29:11;5.70;99.90
21906;DHT22;11117;48.644;9.006;2023-03-01T11:31:39;5.70;99.90
21906;DHT22;11117;48.644;9.006;2023-03-01T11:34:13;5.50;99.90
21906;DHT22;11117;48.644;9.006;2023-03-01T11:52:46;5.60;99.90
21906;DHT22;11117;48.644;9.006;2023-03-01T12:21:23;6.00;99.90
21906;DHT22;11117;48.644;9.006;2023-03-01T12:53:50;6.40;99.50
21906;DHT22;11117;48.644;9.006;2023-03-01T12:56:30;6.50;99.70
21906;DHT22;11117;48.644;9.006;2023-03-01T13:11:00;6.80;98.30
21906;DHT22;11117;48.644;9.006;2023-03-01T13:13:28;6.60;98.50
21906;DHT22;11117;48.644;9.006;2023-03-01T13:19:28;6.90;99.00
21906;DHT22;11117;48.644;9.006;2023-03-01T13:21:58;6.90;98.30
21906;DHT22;11117;48.644;9.006;2023-03-01T13:24:41;7.00;98.60
21906;DHT22;11117;48.644;9.006;2023-03-01T13:29:52;7.10;98.50
21906;DHT22;11117;48.644;9.006;2023-03-01T13:36:04;6.90;98.50
21906;DHT22;11117;48.644;9.006;2023-03-01T13:53:14;7.30;98.10
21906;DHT22;11117;48.644;9.006;2023-03-01T13:58:48;7.50;97.60
21906;DHT22;11117;48.644;9.006;2023-03-01T14:01:38;7.40;97.30
21906;DHT22;11117;48.644;9.006;2023-03-01T14:04:22;7.30;97.70
21906;DHT22;11117;48.644;9.006;2023-03-01T14:06:49;7.30;97.90
21906;DHT22;11117;48.644;9.006;2023-03-01T14:09:22;7.30;98.00
21906;DHT22;11117;48.644;9.006;2023-03-01T14:12:01;7.40;97.90
21906;DHT22;11117;48.644;9.006;2023-03-01T14:20:33;7.40;97.50
21906;DHT22;11117;48.644;9.006;2023-03-01T14:23:20;7.30;97.50
21906;DHT22;11117;48.644;9.006;2023-03-01T14:25:49;7.20;97.50
21906;DHT22;11117;48.644;9.006;2023-03-01T14:28:29;7.30;97.80
21906;DHT22;11117;48.644;9.006;2023-03-01T14:31:00;7.20;97.60
21906;DHT22;11117;48.644;9.006;2023-03-01T14:33:33;7.40;98.10
21906;DHT22;11117;48.644;9.006;2023-03-01T14:38:39;7.50;97.10
21906;DHT22;11117;48.644;9.006;2023-03-01T14:41:15;7.50;97.40
21906;DHT22;11117;48.644;9.006;2023-03-01T14:44:01;7.30;97.00
21906;DHT22;11117;48.644;9.006;2023-03-01T14:46:45;7.20;97.20
21906;DHT22;11117;48.644;9.006;2023-03-01T14:49:24;7.10;97.10
21906;DHT22;11117;48.644;9.006;2023-03-01T14:52:06;7.00;97.50
21906;DHT22;11117;48.644;9.006;2023-03-01T15:00:03;6.80;97.80
21906;DHT22;11117;48.644;9.006;2023-03-01T15:02:33;6.50;97.80
21906;DHT22;11117;48.644;9.006;2023-03-01T15:05:05;6.40;98.10
21906;DHT22;11117;48.644;9.006;2023-03-01T15:07:38;6.50;98.30
21906;DHT22;11117;48.644;9.006;2023-03-01T15:10:07;6.40;98.00
21906;DHT22;11117;48.644;9.006;2023-03-01T15:12:52;6.40;98.20
21906;DHT22;11117;48.644;9.006;2023-03-01T15:15:46;6.50;98.40
21906;DHT22;11117;48.644;9.006;2023-03-01T15:18:26;6.40;98.30
21906;DHT22;11117;48.644;9.006;2023-03-01T15:21:02;6.40;98.50
21906;DHT22;11117;48.644;9.006;2023-03-01T15:23:36;6.50;98.40
21906;DHT22;11117;48.644;9.006;2023-03-01T15:26:22;6.50;98.90
21906;DHT22;11117;48.644;9.006;2023-03-01T15:28:50;6.40;98.50
21906;DHT22;11117;48.644;9.006;2023-03-01T15:31:22;6.50;98.60
21906;DHT22;11117;48.644;9.006;2023-03-01T15:34:38;6.40;98.60
21906;DHT22;11117;48.644;9.006;2023-03-01T15:36:48;6.30;98.60
21906;DHT22;11117;48.644;9.006;2023-03-01T15:45:32;6.30;98.90
21906;DHT22;11117;48.644;9.006;2023-03-01T15:48:22;6.30;98.80
21906;DHT22;11117;48.644;9.006;2023-03-01T15:51:04;6.30;98.90
21906;DHT22;11117;48.644;9.006;2023-03-01T15:53:32;6.20;98.90
21906;DHT22;11117;48.644;9.006;2023-03-01T15:56:28;6.10;99.30
21906;DHT22;11117;48.644;9.006;2023-03-01T15:59:02;6.10;99.20
21906;DHT22;11117;48.644;9.006;2023-03-01T16:01:41;6.10;99.20
21906;DHT22;11117;48.644;9.006;2023-03-01T16:07:16;6.00;99.40
21906;DHT22;11117;48.644;9.006;2023-03-01T16:09:47;5.80;99.50
21906;DHT22;11117;48.644;9.006;2023-03-01T16:12:17;5.70;99.70
21906;DHT22;11117;48.644;9.006;2023-03-01T16:14:54;5.70;99.80
21906;DHT22;11117;48.644;9.006;2023-03-01T16:17:29;5.70;99.80
21906;DHT22;11117;48.644;9.006;2023-03-01T16:20:01;5.70;99.80
21906;DHT22;11117;48.644;9.006;2023-03-01T16:22:30;5.70;99.90
21906;DHT22;11117;48.644;9.006;2023-03-01T16:24:56;5.70;99.80
21906;DHT22;11117;48.644;9.006;2023-03-01T16:27:21;5.50;99.60
21906;DHT22;11117;48.644;9.006;2023-03-01T16:29:50;5.40;99.80
21906;DHT22;11117;48.644;9.006;2023-03-01T16:32:19;5.40;99.90
21906;DHT22;11117;48.644;9.006;2023-03-01T16:34:44;5.40;99.90
21906;DHT22;11117;48.644;9.006;2023-03-01T16:37:22;5.30;99.90
21906;DHT22;11117;48.644;9.006;2023-03-01T16:39:51;5.20;99.90
21906;DHT22;11117;48.644;9.006;2023-03-01T16:42:20;5.30;99.90
21906;DHT22;11117;48.644;9.006;2023-03-01T16:44:54;5.20;99.90
21906;DHT22;11117;48.644;9.006;2023-03-01T16:47:21;5.10;99.90
21906;DHT22;11117;48.644;9.006;2023-03-01T16:49:54;5.10;99.90
21906;DHT22;11117;48.644;9.006;2023-03-01T16:52:23;5.00;99.90
21906;DHT22;11117;48.644;9.006;2023-03-01T16:54:59;5.00;99.90
21906;DHT22;11117;48.644;9.006;2023-03-01T16:57:41;5.00;99.90
21906;DHT22;11117;48.644;9.006;2023-03-01T17:00:17;4.90;99.90
21906;DHT22;11117;48.644;9.006;2023-03-01T17:02:50;4.80;99.90
21906;DHT22;11117;48.644;9.006;2023-03-01T17:05:25;4.80;99.90
21906;DHT22;11117;48.644;9.006;2023-03-01T17:07:57;4.80;99.90
21906;DHT22;11117;48.644;9.006;2023-03-01T17:10:29;4.70;99.90
21906;DHT22;11117;48.644;9.006;2023-03-01T17:12:55;4.70;99.90
21906;DHT22;11117;48.644;9.006;2023-03-01T17:15:24;4.70;99.90
21906;DHT22;11117;48.644;9.006;2023-03-01T17:17:58;4.60;99.90
21906;DHT22;11117;48.644;9.006;2023-03-01T17:20:43;4.60;99.90
21906;DHT22;11117;48.644;9.006;2023-03-01T17:23:11;4.50;99.90
21906;DHT22;11117;48.644;9.006;2023-03-01T17:25:55;4.50;99.90
21906;DHT22;11117;48.644;9.006;2023-03-01T17:28:29;4.40;99.90
21906;DHT22;11117;48.644;9.006;2023-03-01T17:31:06;4.40;99.90
21906;DHT22;11117;48.644;9.006;2023-03-01T17:33:35;4.40;99.90
21906;DHT22;11117;48.644;9.006;2023-03-01T17:36:04;4.30;99.90
21906;DHT22;11117;48.644;9.006;2023-03-01T17:39:03;4.30;99.90
21906;DHT22;11117;48.644;9.006;2023-03-01T17:41:31;4.30;99.90
21906;DHT22;11117;48.644;9.006;2023-03-01T17:44:00;4.20;99.90
21906;DHT22;11117;48.644;9.006;2023-03-01T17:46:26;4.20;99.90
21906;DHT22;11117;48.644;9.006;2023-03-01T17:51:46;4.10;99.90
21906;DHT22;11117;48.644;9.006;2023-03-01T17:54:11;4.10;99.90
21906;DHT22;11117;48.644;9.006;2023-03-01T17:59:38;4.10;99.90
21906;DHT22;11117;48.644;9.006;2023-03-01T18:02:04;4.00;99.90
21906;DHT22;11117;48.644;9.006;2023-03-01T18:04:30;4.00;99.90
21906;DHT22;11117;48.644;9.006;2023-03-01T18:07:02;3.90;99.90
21906;DHT22;11117;48.644;9.006;2023-03-01T18:09:28;3.80;99.90
21906;DHT22;11117;48.644;9.006;2023-03-01T18:12:20;3.80;99.90
21906;DHT22;11117;48.644;9.006;2023-03-01T18:14:47;3.80;99.90
21906;DHT22;11117;48.644;9.006;2023-03-01T18:17:23;3.80;99.90
21906;DHT22;11117;48.644;9.006;2023-03-01T18:20:08;3.70;99.90
21906;DHT22;11117;48.644;9.006;2023-03-01T18:22:43;3.80;99.90
21906;DHT22;11117;48.644;9.006;2023-03-01T18:25:11;3.70;99.90
21906;DHT22;11117;48.644;9.006;2023-03-01T18:27:37;3.70;99.90
21906;DHT22;11117;48.644;9.006;2023-03-01T18:30:12;3.60;99.90
21906;DHT22;11117;48.644;9.006;2023-03-01T18:32:41;3.50;99.90
21906;DHT22;11117;48.644;9.006;2023-03-01T18:35:22;3.50;99.90
21906;DHT22;11117;48.644;9.006;2023-03-01T18:37:57;3.40;99.90
21906;DHT22;11117;48.644;9.006;2023-03-01T18:40:35;3.30;99.90